sensor_id;sensor_type;location;lat;lon;timestamp;pressure;altitude;pressure_sealevel;temperature;humidity
66945;BME280;53853;51.982;5.928;2023-04-24T00:01:11;99797.72;;;11.22;79.73
66945;BME280;53853;51.982;5.928;2023-04-24T00:03:42;99798.34;;;11.24;79.69
66945;BME280;53853;51.982;5.928;2023-04-24T00:06:11;99791.03;;;11.26;79.86
66945;BME280;53853;51.982;5.928;2023-04-24T00:08:46;99791.84;;;11.27;79.57
66945;BME280;53853;51.982;5.928;2023-04-24T00:11:16;99800.84;;;11.26;79.53
66945;BME280;53853;51.982;5.928;2023-04-24T00:13:46;99802.69;;;11.25;79.58
66945;BME280;53853;51.982;5.928;2023-04-24T00:16:16;99809.88;;;11.24;79.60
66945;BME280;53853;51.982;5.928;2023-04-24T00:18:46;99796.34;;;11.26;79.97
66945;BME280;53853;51.982;5.928;2023-04-24T00:21:19;99806.00;;;11.27;79.64
66945;BME280;53853;51.982;5.928;2023-04-24T00:23:55;99809.50;;;11.28;79.78
66945;BME280;53853;51.982;5.928;2023-04-24T00:26:24;99817.03;;;11.24;79.57
66945;BME280;53853;51.982;5.928;2023-04-24T00:28:54;99818.41;;;11.20;79.83
66945;BME280;53853;51.982;5.928;2023-04-24T00:31:24;99816.72;;;11.19;79.64
66945;BME280;53853;51.982;5.928;2023-04-24T00:33:54;99818.09;;;11.15;79.58
66945;BME280;53853;51.982;5.928;2023-04-24T00:36:24;99822.59;;;11.14;80.20
66945;BME280;53853;51.982;5.928;2023-04-24T00:38:56;99820.56;;;11.16;80.21
66945;BME280;53853;51.982;5.928;2023-04-24T00:41:26;99815.25;;;11.16;79.93
66945;BME280;53853;51.982;5.928;2023-04-24T00:43:56;99816.09;;;11.17;80.11
66945;BME280;53853;51.982;5.928;2023-04-24T00:46:26;99826.94;;;11.15;79.46
66945;BME280;53853;51.982;5.928;2023-04-24T00:48:57;99828.75;;;11.15;79.69
66945;BME280;53853;51.982;5.928;2023-04-24T00:51:28;99815.94;;;11.10;80.11
66945;BME280;53853;51.982;5.928;2023-04-24T00:54:02;99825.63;;;11.11;80.58
66945;BME280;53853;51.982;5.928;2023-04-24T00:56:32;99825.97;;;11.08;80.99
66945;BME280;53853;51.982;5.928;2023-04-24T00:59:02;99827.66;;;11.09;81.40
66945;BME280;53853;51.982;5.928;2023-04-24T01:01:32;99820.00;;;11.06;81.69
66945;BME280;53853;51.982;5.928;2023-04-24T01:04:03;99823.13;;;11.10;82.01
66945;BME280;53853;51.982;5.928;2023-04-24T01:06:34;99821.66;;;11.07;81.52
66945;BME280;53853;51.982;5.928;2023-04-24T01:09:07;99822.50;;;11.08;81.89
66945;BME280;53853;51.982;5.928;2023-04-24T01:11:38;99827.81;;;11.08;81.91
66945;BME280;53853;51.982;5.928;2023-04-24T01:14:12;99825.97;;;11.08;81.90
66945;BME280;53853;51.982;5.928;2023-04-24T01:16:42;99818.81;;;11.09;81.89
66945;BME280;53853;51.982;5.928;2023-04-24T01:19:12;99827.28;;;11.12;82.19
66945;BME280;53853;51.982;5.928;2023-04-24T01:21:44;99818.25;;;11.13;82.25
66945;BME280;53853;51.982;5.928;2023-04-24T01:24:21;99820.28;;;11.11;80.88
66945;BME280;53853;51.982;5.928;2023-04-24T01:26:51;99822.97;;;11.11;80.77
66945;BME280;53853;51.982;5.928;2023-04-24T01:29:21;99824.63;;;11.12;81.14
66945;BME280;53853;51.982;5.928;2023-04-24T01:31:52;99813.97;;;11.12;81.08
66945;BME280;53853;51.982;5.928;2023-04-24T01:34:21;99824.63;;;11.12;81.13
66945;BME280;53853;51.982;5.928;2023-04-24T01:36:52;99820.75;;;11.15;81.45
66945;BME280;53853;51.982;5.928;2023-04-24T01:39:25;99819.28;;;11.12;81.78
66945;BME280;53853;51.982;5.928;2023-04-24T01:41:55;99823.59;;;11.13;81.55
66945;BME280;53853;51.982;5.928;2023-04-24T01:44:27;99822.78;;;11.13;81.21
66945;BME280;53853;51.982;5.928;2023-04-24T01:46:57;99816.44;;;11.14;81.24
66945;BME280;53853;51.982;5.928;2023-04-24T01:49:27;99818.94;;;11.15;81.53
66945;BME280;53853;51.982;5.928;2023-04-24T01:51:57;99822.25;;;11.17;81.39
66945;BME280;53853;51.982;5.928;2023-04-24T01:54:33;99821.44;;;11.17;81.71
66945;BME280;53853;51.982;5.928;2023-04-24T01:57:03;99828.75;;;11.15;81.98
66945;BME280;53853;51.982;5.928;2023-04-24T01:59:34;99826.63;;;11.10;82.35
66945;BME280;53853;51.982;5.928;2023-04-24T02:02:04;99817.34;;;11.06;82.90
66945;BME280;53853;51.982;5.928;2023-04-24T02:04:36;99820.81;;;11.06;83.35
66945;BME280;53853;51.982;5.928;2023-04-24T02:07:05;99814.22;;;11.02;83.11
66945;BME280;53853;51.982;5.928;2023-04-24T02:09:38;99819.03;;;10.99;83.66
66945;BME280;53853;51.982;5.928;2023-04-24T02:12:08;99811.72;;;11.01;83.82
66945;BME280;53853;51.982;5.928;2023-04-24T02:14:38;99808.03;;;11.02;83.95
66945;BME280;53853;51.982;5.928;2023-04-24T02:17:10;99798.03;;;11.04;83.97
66945;BME280;53853;51.982;5.928;2023-04-24T02:19:42;99802.69;;;11.02;84.03
66945;BME280;53853;51.982;5.928;2023-04-24T02:22:12;99819.53;;;11.02;83.51
66945;BME280;53853;51.982;5.928;2023-04-24T02:24:45;99804.72;;;11.00;82.62
66945;BME280;53853;51.982;5.928;2023-04-24T02:27:16;99804.06;;;10.98;83.03
66945;BME280;53853;51.982;5.928;2023-04-24T02:29:46;99802.41;;;10.97;83.14
66945;BME280;53853;51.982;5.928;2023-04-24T02:32:16;99811.03;;;10.99;83.34
66945;BME280;53853;51.982;5.928;2023-04-24T02:34:46;99811.72;;;11.01;82.96
66945;BME280;53853;51.982;5.928;2023-04-24T02:37:15;99814.75;;;10.98;82.77
66945;BME280;53853;51.982;5.928;2023-04-24T02:39:48;99811.41;;;10.96;82.82
66945;BME280;53853;51.982;5.928;2023-04-24T02:42:18;99817.56;;;10.96;83.01
66945;BME280;53853;51.982;5.928;2023-04-24T02:44:47;99807.91;;;10.95;82.74
66945;BME280;53853;51.982;5.928;2023-04-24T02:47:18;99811.09;;;10.91;82.82
66945;BME280;53853;51.982;5.928;2023-04-24T02:49:49;99813.13;;;10.88;83.18
66945;BME280;53853;51.982;5.928;2023-04-24T02:52:19;99811.09;;;10.91;83.26
66945;BME280;53853;51.982;5.928;2023-04-24T02:54:52;99816.44;;;10.91;83.30
66945;BME280;53853;51.982;5.928;2023-04-24T02:57:22;99815.63;;;10.90;83.39
66945;BME280;53853;51.982;5.928;2023-04-24T02:59:52;99810.13;;;10.92;83.46
66945;BME280;53853;51.982;5.928;2023-04-24T03:02:22;99813.13;;;10.88;83.21
66945;BME280;53853;51.982;5.928;2023-04-24T03:04:52;99818.28;;;10.90;83.47
66945;BME280;53853;51.982;5.928;2023-04-24T03:07:21;99823.78;;;10.88;83.66
66945;BME280;53853;51.982;5.928;2023-04-24T03:09:54;99826.47;;;10.88;83.93
66945;BME280;53853;51.982;5.928;2023-04-24T03:12:24;99821.78;;;10.91;84.01
66945;BME280;53853;51.982;5.928;2023-04-24T03:14:55;99823.63;;;10.90;83.85
66945;BME280;53853;51.982;5.928;2023-04-24T03:17:25;99826.47;;;10.88;83.38
66945;BME280;53853;51.982;5.928;2023-04-24T03:19:55;99827.44;;;10.87;83.64
66945;BME280;53853;51.982;5.928;2023-04-24T03:22:25;99816.78;;;10.87;83.97
66945;BME280;53853;51.982;5.928;2023-04-24T03:24:58;99819.28;;;10.89;84.29
66945;BME280;53853;51.982;5.928;2023-04-24T03:27:28;99822.59;;;10.91;84.38
66945;BME280;53853;51.982;5.928;2023-04-24T03:30:03;99831.91;;;10.95;84.29
66945;BME280;53853;51.982;5.928;2023-04-24T03:32:42;99828.78;;;10.92;83.83
66945;BME280;53853;51.982;5.928;2023-04-24T03:35:15;99843.44;;;10.87;83.79
66945;BME280;53853;51.982;5.928;2023-04-24T03:37:45;99836.47;;;10.86;84.14
66945;BME280;53853;51.982;5.928;2023-04-24T03:40:36;99835.78;;;10.84;83.71
66945;BME280;53853;51.982;5.928;2023-04-24T03:43:15;99839.31;;;10.85;83.85
66945;BME280;53853;51.982;5.928;2023-04-24T03:45:46;99843.78;;;10.84;83.61
66945;BME280;53853;51.982;5.928;2023-04-24T03:48:17;99843.16;;;10.82;83.43
66945;BME280;53853;51.982;5.928;2023-04-24T03:50:48;99842.16;;;10.83;83.72
66945;BME280;53853;51.982;5.928;2023-04-24T03:53:18;99839.50;;;10.83;83.63
66945;BME280;53853;51.982;5.928;2023-04-24T03:55:52;99844.81;;;10.83;83.76
66945;BME280;53853;51.982;5.928;2023-04-24T03:58:22;99839.50;;;10.83;83.13
66945;BME280;53853;51.982;5.928;2023-04-24T04:00:54;99840.84;;;10.79;82.84
66945;BME280;53853;51.982;5.928;2023-04-24T04:03:46;99849.66;;;10.80;83.38
66945;BME280;53853;51.982;5.928;2023-04-24T04:06:20;99851.84;;;10.76;82.98
66945;BME280;53853;51.982;5.928;2023-04-24T04:08:52;99854.03;;;10.73;82.40
66945;BME280;53853;51.982;5.928;2023-04-24T04:11:24;99852.19;;;10.73;82.75
66945;BME280;53853;51.982;5.928;2023-04-24T04:13:54;99849.69;;;10.72;82.61
66945;BME280;53853;51.982;5.928;2023-04-24T04:16:25;99860.53;;;10.70;82.45
66945;BME280;53853;51.982;5.928;2023-04-24T04:19:01;99858.50;;;10.72;82.89
66945;BME280;53853;51.982;5.928;2023-04-24T04:21:32;99864.88;;;10.71;82.95
66945;BME280;53853;51.982;5.928;2023-04-24T04:24:14;99854.56;;;10.68;82.44
66945;BME280;53853;51.982;5.928;2023-04-24T04:26:48;99855.56;;;10.67;82.30
66945;BME280;53853;51.982;5.928;2023-04-24T04:29:41;99852.88;;;10.67;82.70
66945;BME280;53853;51.982;5.928;2023-04-24T04:32:13;99850.22;;;10.67;82.14
66945;BME280;53853;51.982;5.928;2023-04-24T04:34:43;99852.06;;;10.66;82.21
66945;BME280;53853;51.982;5.928;2023-04-24T04:37:16;99847.56;;;10.67;82.05
66945;BME280;53853;51.982;5.928;2023-04-24T04:40:06;99849.06;;;10.69;82.47
66945;BME280;53853;51.982;5.928;2023-04-24T04:42:46;99849.69;;;10.72;82.58
66945;BME280;53853;51.982;5.928;2023-04-24T04:45:20;99855.03;;;10.72;82.85
66945;BME280;53853;51.982;5.928;2023-04-24T04:48:11;99853.19;;;10.72;82.81
66945;BME280;53853;51.982;5.928;2023-04-24T04:50:44;99859.19;;;10.74;83.10
66945;BME280;53853;51.982;5.928;2023-04-24T04:53:15;99858.16;;;10.75;82.80
66945;BME280;53853;51.982;5.928;2023-04-24T04:55:45;99863.84;;;10.72;82.44
66945;BME280;53853;51.982;5.928;2023-04-24T04:58:19;99860.19;;;10.73;82.76
66945;BME280;53853;51.982;5.928;2023-04-24T05:00:53;99862.03;;;10.73;82.56
66945;BME280;53853;51.982;5.928;2023-04-24T05:03:34;99862.22;;;10.71;81.82
66945;BME280;53853;51.982;5.928;2023-04-24T05:06:08;99857.56;;;10.65;82.13
66945;BME280;53853;51.982;5.928;2023-04-24T05:08:41;99857.56;;;10.65;82.42
66945;BME280;53853;51.982;5.928;2023-04-24T05:11:31;99862.91;;;10.65;82.57
66945;BME280;53853;51.982;5.928;2023-04-24T05:14:05;99868.22;;;10.65;82.59
66945;BME280;53853;51.982;5.928;2023-04-24T05:16:37;99869.06;;;10.65;82.86
66945;BME280;53853;51.982;5.928;2023-04-24T05:19:09;99863.91;;;10.64;82.88
66945;BME280;53853;51.982;5.928;2023-04-24T05:21:41;99870.06;;;10.64;83.00
66945;BME280;53853;51.982;5.928;2023-04-24T05:24:12;99869.22;;;10.64;82.69
66945;BME280;53853;51.982;5.928;2023-04-24T05:26:45;99882.25;;;10.59;82.41
66945;BME280;53853;51.982;5.928;2023-04-24T05:29:20;99890.25;;;10.59;82.60
66945;BME280;53853;51.982;5.928;2023-04-24T05:31:50;99894.06;;;10.56;82.53
66945;BME280;53853;51.982;5.928;2023-04-24T05:34:20;99892.59;;;10.54;82.87
66945;BME280;53853;51.982;5.928;2023-04-24T05:36:54;99893.25;;;10.56;83.03
66945;BME280;53853;51.982;5.928;2023-04-24T05:39:24;99897.59;;;10.57;83.34
66945;BME280;53853;51.982;5.928;2023-04-24T05:41:55;99903.56;;;10.59;83.50
66945;BME280;53853;51.982;5.928;2023-04-24T05:44:28;99906.88;;;10.61;83.62
66945;BME280;53853;51.982;5.928;2023-04-24T05:46:59;99913.06;;;10.61;83.68
66945;BME280;53853;51.982;5.928;2023-04-24T05:49:29;99917.34;;;10.62;84.03
66945;BME280;53853;51.982;5.928;2023-04-24T05:51:59;99911.69;;;10.65;84.07
66945;BME280;53853;51.982;5.928;2023-04-24T05:54:31;99915.84;;;10.68;83.82
66945;BME280;53853;51.982;5.928;2023-04-24T05:57:00;99918.16;;;10.71;84.05
66945;BME280;53853;51.982;5.928;2023-04-24T05:59:49;99926.47;;;10.76;84.00
66945;BME280;53853;51.982;5.928;2023-04-24T06:02:20;99923.63;;;10.78;83.95
66945;BME280;53853;51.982;5.928;2023-04-24T06:04:51;99931.78;;;10.76;84.11
66945;BME280;53853;51.982;5.928;2023-04-24T06:07:20;99933.13;;;10.80;84.21
66945;BME280;53853;51.982;5.928;2023-04-24T06:09:50;99933.78;;;10.82;84.40
66945;BME280;53853;51.982;5.928;2023-04-24T06:12:20;99938.75;;;10.85;84.38
66945;BME280;53853;51.982;5.928;2023-04-24T06:14:59;99944.25;;;10.84;83.72
66945;BME280;53853;51.982;5.928;2023-04-24T06:17:52;99949.94;;;10.81;83.96
66945;BME280;53853;51.982;5.928;2023-04-24T06:20:22;99953.25;;;10.83;83.76
66945;BME280;53853;51.982;5.928;2023-04-24T06:22:52;99952.72;;;10.87;84.03
66945;BME280;53853;51.982;5.928;2023-04-24T06:25:24;99956.53;;;10.93;84.11
66945;BME280;53853;51.982;5.928;2023-04-24T06:27:54;99960.50;;;10.97;84.16
66945;BME280;53853;51.982;5.928;2023-04-24T06:30:26;99957.66;;;10.99;84.21
66945;BME280;53853;51.982;5.928;2023-04-24T06:32:56;99969.84;;;11.01;84.10
66945;BME280;53853;51.982;5.928;2023-04-24T06:35:26;99972.31;;;11.03;84.03
66945;BME280;53853;51.982;5.928;2023-04-24T06:37:56;99983.47;;;11.06;84.23
66945;BME280;53853;51.982;5.928;2023-04-24T06:40:26;99983.28;;;11.08;83.08
66945;BME280;53853;51.982;5.928;2023-04-24T06:42:57;99981.66;;;11.07;82.89
66945;BME280;53853;51.982;5.928;2023-04-24T06:45:32;99988.44;;;11.10;82.96
66945;BME280;53853;51.982;5.928;2023-04-24T06:48:02;99986.59;;;11.10;83.29
66945;BME280;53853;51.982;5.928;2023-04-24T06:50:32;99994.94;;;11.15;82.82
66945;BME280;53853;51.982;5.928;2023-04-24T06:53:02;100006.91;;;11.19;83.37
66945;BME280;53853;51.982;5.928;2023-04-24T06:55:32;100000.88;;;11.26;83.79
66945;BME280;53853;51.982;5.928;2023-04-24T06:58:02;100006.50;;;11.31;83.49
66945;BME280;53853;51.982;5.928;2023-04-24T07:00:35;100007.34;;;11.31;82.29
66945;BME280;53853;51.982;5.928;2023-04-24T07:03:05;100010.97;;;11.38;82.92
66945;BME280;53853;51.982;5.928;2023-04-24T07:05:35;100008.28;;;11.38;81.89
66945;BME280;53853;51.982;5.928;2023-04-24T07:08:05;100013.47;;;11.40;82.04
66945;BME280;53853;51.982;5.928;2023-04-24T07:10:38;100014.13;;;11.42;82.08
66945;BME280;53853;51.982;5.928;2023-04-24T07:13:08;100019.66;;;11.40;82.00
66945;BME280;53853;51.982;5.928;2023-04-24T07:15:40;100029.47;;;11.40;82.37
66945;BME280;53853;51.982;5.928;2023-04-24T07:18:10;100039.66;;;11.36;81.69
66945;BME280;53853;51.982;5.928;2023-04-24T07:20:40;100046.16;;;11.34;81.75
66945;BME280;53853;51.982;5.928;2023-04-24T07:23:10;100044.75;;;11.23;81.20
66945;BME280;53853;51.982;5.928;2023-04-24T07:25:40;100048.91;;;11.17;81.67
66945;BME280;53853;51.982;5.928;2023-04-24T07:28:10;100052.44;;;11.10;82.13
66945;BME280;53853;51.982;5.928;2023-04-24T07:30:43;100052.78;;;11.06;82.59
66945;BME280;53853;51.982;5.928;2023-04-24T07:33:13;100048.16;;;11.00;82.64
66945;BME280;53853;51.982;5.928;2023-04-24T07:35:43;100060.19;;;10.96;83.23
66945;BME280;53853;51.982;5.928;2023-04-24T07:38:13;100065.50;;;10.96;83.54
66945;BME280;53853;51.982;5.928;2023-04-24T07:40:43;100067.16;;;10.97;83.78
66945;BME280;53853;51.982;5.928;2023-04-24T07:43:13;100078.50;;;10.91;83.48
66945;BME280;53853;51.982;5.928;2023-04-24T07:45:45;100085.84;;;10.89;83.74
66945;BME280;53853;51.982;5.928;2023-04-24T07:48:15;100093.19;;;10.87;83.77
66945;BME280;53853;51.982;5.928;2023-04-24T07:50:45;100100.88;;;10.82;83.33
66945;BME280;53853;51.982;5.928;2023-04-24T07:53:15;100112.19;;;10.76;82.56
66945;BME280;53853;51.982;5.928;2023-04-24T07:55:45;100122.03;;;10.67;82.59
66945;BME280;53853;51.982;5.928;2023-04-24T07:58:15;100113.88;;;10.52;82.35
66945;BME280;53853;51.982;5.928;2023-04-24T08:00:47;100136.69;;;10.46;83.42
66945;BME280;53853;51.982;5.928;2023-04-24T08:03:17;100137.63;;;10.29;82.44
66945;BME280;53853;51.982;5.928;2023-04-24T08:05:47;100138.94;;;10.16;83.23
66945;BME280;53853;51.982;5.928;2023-04-24T08:08:19;100149.59;;;10.08;83.66
66945;BME280;53853;51.982;5.928;2023-04-24T08:10:49;100171.88;;;9.99;84.39
66945;BME280;53853;51.982;5.928;2023-04-24T08:13:19;100176.84;;;9.94;84.50
66945;BME280;53853;51.982;5.928;2023-04-24T08:15:52;100185.16;;;9.91;84.79
66945;BME280;53853;51.982;5.928;2023-04-24T08:18:22;100187.47;;;9.86;84.70
66945;BME280;53853;51.982;5.928;2023-04-24T08:20:53;100194.41;;;9.78;84.91
66945;BME280;53853;51.982;5.928;2023-04-24T08:23:22;100198.91;;;9.78;85.31
66945;BME280;53853;51.982;5.928;2023-04-24T08:25:52;100208.19;;;9.66;85.47
66945;BME280;53853;51.982;5.928;2023-04-24T08:28:22;100219.63;;;9.58;85.73
66945;BME280;53853;51.982;5.928;2023-04-24T08:30:55;100220.78;;;9.55;86.34
66945;BME280;53853;51.982;5.928;2023-04-24T08:33:25;100238.56;;;9.55;86.67
66945;BME280;53853;51.982;5.928;2023-04-24T08:36:01;100233.72;;;9.50;85.69
66945;BME280;53853;51.982;5.928;2023-04-24T08:38:31;100245.19;;;9.51;86.57
66945;BME280;53853;51.982;5.928;2023-04-24T08:41:02;100248.81;;;9.50;86.80
66945;BME280;53853;51.982;5.928;2023-04-24T08:43:33;100257.34;;;9.53;87.27
66945;BME280;53853;51.982;5.928;2023-04-24T08:46:07;100249.06;;;9.56;87.63
66945;BME280;53853;51.982;5.928;2023-04-24T08:48:37;100261.53;;;9.64;88.26
66945;BME280;53853;51.982;5.928;2023-04-24T08:51:08;100272.56;;;9.69;88.30
66945;BME280;53853;51.982;5.928;2023-04-24T08:53:38;100273.22;;;9.71;88.38
66945;BME280;53853;51.982;5.928;2023-04-24T08:56:12;100283.56;;;9.74;88.21
66945;BME280;53853;51.982;5.928;2023-04-24T08:58:43;100280.06;;;9.74;87.72
66945;BME280;53853;51.982;5.928;2023-04-24T09:01:16;100288.56;;;9.77;88.09
66945;BME280;53853;51.982;5.928;2023-04-24T09:03:47;100291.59;;;9.83;88.16
66945;BME280;53853;51.982;5.928;2023-04-24T09:06:18;100295.78;;;9.85;87.90
66945;BME280;53853;51.982;5.928;2023-04-24T09:08:49;100303.28;;;9.90;87.89
66945;BME280;53853;51.982;5.928;2023-04-24T09:11:23;100306.59;;;9.92;87.88
66945;BME280;53853;51.982;5.928;2023-04-24T09:13:54;100316.28;;;9.93;87.60
66945;BME280;53853;51.982;5.928;2023-04-24T09:16:27;100321.06;;;9.89;86.56
66945;BME280;53853;51.982;5.928;2023-04-24T09:18:57;100329.34;;;9.86;86.22
66945;BME280;53853;51.982;5.928;2023-04-24T09:21:32;100336.81;;;9.83;85.83
66945;BME280;53853;51.982;5.928;2023-04-24T09:24:03;100335.84;;;9.84;85.71
66945;BME280;53853;51.982;5.928;2023-04-24T09:26:36;100346.50;;;9.84;85.47
66945;BME280;53853;51.982;5.928;2023-04-24T09:29:06;100357.13;;;9.84;84.57
66945;BME280;53853;51.982;5.928;2023-04-24T09:31:39;100352.13;;;9.81;84.57
66945;BME280;53853;51.982;5.928;2023-04-24T09:34:09;100360.78;;;9.83;84.85
66945;BME280;53853;51.982;5.928;2023-04-24T09:36:41;100368.44;;;9.86;84.93
66945;BME280;53853;51.982;5.928;2023-04-24T09:39:12;100372.47;;;9.90;83.55
66945;BME280;53853;51.982;5.928;2023-04-24T09:41:47;100374.53;;;9.96;83.98
66945;BME280;53853;51.982;5.928;2023-04-24T09:44:18;100377.69;;;10.00;83.49
66945;BME280;53853;51.982;5.928;2023-04-24T09:46:54;100375.22;;;10.06;83.63
66945;BME280;53853;51.982;5.928;2023-04-24T09:49:25;100388.75;;;10.13;82.81
66945;BME280;53853;51.982;5.928;2023-04-24T09:52:03;100395.94;;;10.21;82.51
66945;BME280;53853;51.982;5.928;2023-04-24T09:54:34;100390.13;;;10.25;81.96
66945;BME280;53853;51.982;5.928;2023-04-24T09:57:04;100400.03;;;10.33;81.20
66945;BME280;53853;51.982;5.928;2023-04-24T09:59:41;100410.41;;;10.44;80.58
66945;BME280;53853;51.982;5.928;2023-04-24T10:02:20;100419.75;;;10.48;77.21
66945;BME280;53853;51.982;5.928;2023-04-24T10:04:55;100409.94;;;10.49;78.57
66945;BME280;53853;51.982;5.928;2023-04-24T10:07:26;100420.13;;;10.62;80.85
66945;BME280;53853;51.982;5.928;2023-04-24T10:09:57;100418.22;;;10.80;78.10
66945;BME280;53853;51.982;5.928;2023-04-24T10:12:27;100419.88;;;10.81;75.77
66945;BME280;53853;51.982;5.928;2023-04-24T10:14:58;100426.56;;;10.85;75.38
66945;BME280;53853;51.982;5.928;2023-04-24T10:17:31;100433.91;;;10.92;75.39
66945;BME280;53853;51.982;5.928;2023-04-24T10:20:02;100423.25;;;10.92;74.65
66945;BME280;53853;51.982;5.928;2023-04-24T10:22:33;100431.59;;;11.05;77.55
66945;BME280;53853;51.982;5.928;2023-04-24T10:25:05;100423.28;;;11.16;73.66
66945;BME280;53853;51.982;5.928;2023-04-24T10:27:36;100433.94;;;11.16;73.36
66945;BME280;53853;51.982;5.928;2023-04-24T10:30:09;100442.44;;;11.12;73.35
66945;BME280;53853;51.982;5.928;2023-04-24T10:32:44;100429.81;;;11.22;73.38
66945;BME280;53853;51.982;5.928;2023-04-24T10:35:15;100441.47;;;11.21;71.75
66945;BME280;53853;51.982;5.928;2023-04-24T10:37:48;100441.47;;;11.29;70.36
66945;BME280;53853;51.982;5.928;2023-04-24T10:40:19;100447.19;;;11.34;71.51
66945;BME280;53853;51.982;5.928;2023-04-24T10:42:54;100447.19;;;11.42;71.79
66945;BME280;53853;51.982;5.928;2023-04-24T10:45:28;100456.16;;;11.50;70.84
66945;BME280;53853;51.982;5.928;2023-04-24T10:48:03;100458.19;;;11.48;66.35
66945;BME280;53853;51.982;5.928;2023-04-24T10:50:44;100452.69;;;11.41;69.37
66945;BME280;53853;51.982;5.928;2023-04-24T10:53:16;100464.69;;;11.45;71.42
66945;BME280;53853;51.982;5.928;2023-04-24T10:55:48;100472.16;;;11.33;65.08
66945;BME280;53853;51.982;5.928;2023-04-24T10:58:23;100483.66;;;11.34;69.89
66945;BME280;53853;51.982;5.928;2023-04-24T11:00:58;100478.03;;;11.45;68.99
66945;BME280;53853;51.982;5.928;2023-04-24T11:03:32;100486.06;;;11.53;68.96
66945;BME280;53853;51.982;5.928;2023-04-24T11:06:04;100487.91;;;11.61;67.87
66945;BME280;53853;51.982;5.928;2023-04-24T11:08:38;100484.38;;;11.69;68.36
66945;BME280;53853;51.982;5.928;2023-04-24T11:11:12;100496.25;;;11.58;65.20
66945;BME280;53853;51.982;5.928;2023-04-24T11:14:01;100489.38;;;11.47;66.58
66945;BME280;53853;51.982;5.928;2023-04-24T11:16:34;100498.84;;;11.33;65.29
66945;BME280;53853;51.982;5.928;2023-04-24T11:19:09;100506.13;;;11.15;67.88
66945;BME280;53853;51.982;5.928;2023-04-24T11:21:40;100505.94;;;11.08;67.66
66945;BME280;53853;51.982;5.928;2023-04-24T11:24:25;100511.13;;;11.18;66.60
66945;BME280;53853;51.982;5.928;2023-04-24T11:26:56;100515.19;;;11.30;67.08
66945;BME280;53853;51.982;5.928;2023-04-24T11:29:45;100519.88;;;11.36;65.80
66945;BME280;53853;51.982;5.928;2023-04-24T11:32:24;100527.22;;;11.42;66.80
66945;BME280;53853;51.982;5.928;2023-04-24T11:34:58;100523.72;;;11.42;64.31
66945;BME280;53853;51.982;5.928;2023-04-24T11:37:33;100524.06;;;11.39;66.32
66945;BME280;53853;51.982;5.928;2023-04-24T11:40:04;100526.75;;;11.47;67.89
66945;BME280;53853;51.982;5.928;2023-04-24T11:42:35;100524.75;;;11.57;65.90
66945;BME280;53853;51.982;5.928;2023-04-24T11:45:09;100527.25;;;11.67;65.16
66945;BME280;53853;51.982;5.928;2023-04-24T11:47:40;100529.63;;;11.78;66.25
66945;BME280;53853;51.982;5.928;2023-04-24T11:50:14;100527.28;;;11.84;65.49
66945;BME280;53853;51.982;5.928;2023-04-24T11:52:46;100533.00;;;11.97;66.24
66945;BME280;53853;51.982;5.928;2023-04-24T11:55:27;100534.84;;;11.96;63.81
66945;BME280;53853;51.982;5.928;2023-04-24T11:57:59;100546.00;;;11.92;64.49
66945;BME280;53853;51.982;5.928;2023-04-24T12:00:30;100550.13;;;11.86;64.57
66945;BME280;53853;51.982;5.928;2023-04-24T12:03:05;100561.66;;;11.78;62.56
66945;BME280;53853;51.982;5.928;2023-04-24T12:05:39;100556.63;;;11.67;63.14
66945;BME280;53853;51.982;5.928;2023-04-24T12:08:10;100569.78;;;11.60;66.26
66945;BME280;53853;51.982;5.928;2023-04-24T12:10:40;100580.63;;;11.59;68.71
66945;BME280;53853;51.982;5.928;2023-04-24T12:13:10;100588.28;;;11.54;68.24
66945;BME280;53853;51.982;5.928;2023-04-24T12:15:40;100595.06;;;11.40;70.23
66945;BME280;53853;51.982;5.928;2023-04-24T12:18:12;100588.56;;;11.34;72.36
66945;BME280;53853;51.982;5.928;2023-04-24T12:20:46;100593.25;;;11.40;72.43
66945;BME280;53853;51.982;5.928;2023-04-24T12:23:16;100583.75;;;11.46;72.40
66945;BME280;53853;51.982;5.928;2023-04-24T12:25:47;100581.75;;;11.48;70.74
66945;BME280;53853;51.982;5.928;2023-04-24T12:28:16;100591.63;;;11.56;72.54
66945;BME280;53853;51.982;5.928;2023-04-24T12:30:48;100590.66;;;11.65;71.65
66945;BME280;53853;51.982;5.928;2023-04-24T12:33:18;100597.69;;;11.74;70.33
66945;BME280;53853;51.982;5.928;2023-04-24T12:35:52;100597.22;;;11.87;70.19
66945;BME280;53853;51.982;5.928;2023-04-24T12:38:23;100595.28;;;11.98;68.88
66945;BME280;53853;51.982;5.928;2023-04-24T12:41:03;100596.59;;;12.10;64.85
66945;BME280;53853;51.982;5.928;2023-04-24T12:43:34;100609.66;;;12.21;66.76
66945;BME280;53853;51.982;5.928;2023-04-24T12:46:04;100609.63;;;12.38;69.05
66945;BME280;53853;51.982;5.928;2023-04-24T12:48:34;100613.47;;;12.43;64.20
66945;BME280;53853;51.982;5.928;2023-04-24T12:51:08;100613.66;;;12.50;64.81
66945;BME280;53853;51.982;5.928;2023-04-24T12:53:38;100623.34;;;12.43;62.92
66945;BME280;53853;51.982;5.928;2023-04-24T12:56:07;100615.31;;;12.26;61.30
66945;BME280;53853;51.982;5.928;2023-04-24T12:58:37;100614.97;;;12.13;62.58
66945;BME280;53853;51.982;5.928;2023-04-24T13:01:07;100623.13;;;12.11;65.28
66945;BME280;53853;51.982;5.928;2023-04-24T13:03:37;100617.13;;;12.18;63.53
66945;BME280;53853;51.982;5.928;2023-04-24T13:06:10;100627.66;;;12.19;62.64
66945;BME280;53853;51.982;5.928;2023-04-24T13:08:39;100626.00;;;12.26;65.09
66945;BME280;53853;51.982;5.928;2023-04-24T13:11:09;100625.03;;;12.36;65.08
66945;BME280;53853;51.982;5.928;2023-04-24T13:13:39;100627.69;;;12.44;64.73
66945;BME280;53853;51.982;5.928;2023-04-24T13:16:09;100635.69;;;12.52;66.72
66945;BME280;53853;51.982;5.928;2023-04-24T13:18:39;100633.00;;;12.60;64.00
66945;BME280;53853;51.982;5.928;2023-04-24T13:21:11;100633.66;;;12.62;65.15
66945;BME280;53853;51.982;5.928;2023-04-24T13:23:41;100626.97;;;12.75;64.54